createdAt,value
2022-12-22T00:00:32.230Z,14.93
2022-12-22T00:03:17.947Z,17.27
2022-12-22T00:06:03.722Z,16.33
2022-12-22T00:08:49.325Z,15.63
2022-12-22T00:11:34.780Z,16.97
2022-12-22T00:14:20.214Z,16.27
2022-12-22T00:17:05.961Z,16.80
2022-12-22T00:19:51.177Z,18.57
2022-12-22T00:22:41.304Z,18.03
2022-12-22T00:25:30.801Z,18.03
2022-12-22T00:28:16.292Z,18.40
2022-12-22T00:31:02.331Z,17.30
2022-12-22T00:33:47.753Z,18.17
2022-12-22T00:36:33.827Z,17.83
2022-12-22T00:39:19.315Z,17.53
2022-12-22T00:42:04.646Z,18.93
2022-12-22T00:44:50.021Z,17.93
2022-12-22T00:47:43.631Z,17.93
2022-12-22T00:50:29.617Z,18.07
2022-12-22T00:53:15.757Z,16.97
2022-12-22T00:56:01.262Z,17.60
2022-12-22T00:58:46.768Z,17.10
2022-12-22T01:01:35.697Z,18.53
2022-12-22T01:04:21.455Z,17.53
2022-12-22T01:07:07.397Z,17.27
2022-12-22T01:09:53.746Z,16.03
2022-12-22T01:12:42.112Z,16.40
2022-12-22T01:15:36.764Z,16.60
2022-12-22T01:18:22.688Z,15.67
2022-12-22T01:21:09.265Z,16.47
2022-12-22T01:23:54.882Z,14.93
2022-12-22T01:26:40.323Z,15.97
2022-12-22T01:29:26.094Z,14.93
2022-12-22T01:32:11.905Z,17.07
2022-12-22T01:34:58.228Z,15.03
2022-12-22T01:37:43.889Z,14.87
2022-12-22T01:40:34.863Z,15.67
2022-12-22T01:43:20.427Z,16.07
2022-12-22T01:46:05.777Z,14.80
2022-12-22T01:48:51.082Z,14.27
2022-12-22T01:51:47.286Z,13.53
2022-12-22T01:54:33.978Z,12.60
2022-12-22T01:57:20.267Z,11.80
2022-12-22T02:00:05.647Z,11.83
2022-12-22T02:02:51.733Z,11.63
2022-12-22T02:05:38.873Z,11.47
2022-12-22T02:08:43.108Z,11.60
2022-12-22T02:11:45.840Z,12.37
2022-12-22T02:14:54.351Z,13.07
2022-12-22T02:17:49.908Z,12.07
2022-12-22T02:20:44.640Z,12.77
2022-12-22T02:24:00.704Z,11.73
2022-12-22T02:27:10.043Z,12.30
2022-12-22T02:30:00.017Z,13.33
2022-12-22T02:32:45.608Z,11.80
2022-12-22T02:35:33.833Z,14.03
2022-12-22T02:38:34.297Z,12.47
2022-12-22T02:41:44.862Z,12.90
2022-12-22T02:44:54.108Z,12.10
2022-12-22T02:48:02.654Z,10.63
2022-12-22T02:50:56.159Z,9.63
2022-12-22T02:53:42.307Z,11.33
2022-12-22T02:56:29.537Z,12.30
2022-12-22T02:59:15.627Z,11.03
2022-12-22T03:02:03.871Z,11.63
2022-12-22T03:04:49.442Z,10.50
2022-12-22T03:07:35.030Z,11.37
2022-12-22T03:10:20.498Z,10.47
2022-12-22T03:13:06.043Z,10.00
2022-12-22T03:15:51.251Z,9.90
2022-12-22T03:18:36.833Z,9.90
2022-12-22T03:21:22.310Z,7.83
2022-12-22T03:24:07.779Z,5.90
2022-12-22T03:26:34.487Z,4.90
2022-12-22T03:29:01.157Z,4.53
2022-12-22T03:31:27.917Z,5.87
2022-12-22T03:33:54.985Z,7.53
2022-12-22T03:36:21.699Z,8.60
2022-12-22T03:38:48.459Z,9.03
2022-12-22T03:41:33.708Z,8.73
2022-12-22T03:44:19.418Z,9.40
2022-12-22T03:46:46.286Z,8.60
2022-12-22T03:49:13.369Z,9.97
2022-12-22T03:51:44.486Z,11.10
2022-12-22T03:54:14.286Z,9.93
2022-12-22T03:56:41.585Z,8.23
2022-12-22T03:59:08.260Z,8.67
2022-12-22T04:01:45.655Z,8.93
2022-12-22T04:04:13.882Z,8.77
2022-12-22T04:06:41.058Z,8.63
2022-12-22T04:09:07.828Z,7.60
2022-12-22T04:11:53.331Z,8.00
2022-12-22T04:14:20.843Z,7.07
2022-12-22T04:16:47.826Z,7.43
2022-12-22T04:19:16.015Z,7.40
2022-12-22T04:21:43.867Z,5.73
2022-12-22T04:24:12.073Z,5.63
2022-12-22T04:26:39.282Z,5.27
2022-12-22T04:29:06.053Z,4.97
2022-12-22T04:31:32.861Z,4.33
2022-12-22T04:33:59.525Z,4.50
2022-12-22T04:36:26.231Z,4.37
2022-12-22T04:38:52.888Z,4.43
2022-12-22T04:41:19.562Z,3.90
2022-12-22T04:43:46.243Z,3.87
2022-12-22T04:46:13.167Z,3.30
2022-12-22T04:48:40.122Z,2.53
2022-12-22T04:51:07.008Z,2.20
2022-12-22T04:53:34.028Z,2.60
2022-12-22T04:56:03.665Z,2.50
2022-12-22T04:58:30.970Z,1.93
2022-12-22T05:00:57.885Z,2.00
2022-12-22T05:03:25.163Z,1.97
2022-12-22T05:05:51.898Z,1.90
2022-12-22T05:08:18.683Z,2.07
2022-12-22T05:10:45.451Z,1.80
2022-12-22T05:13:12.220Z,1.60
2022-12-22T05:15:38.963Z,2.00
2022-12-22T05:18:05.758Z,1.80
2022-12-22T05:20:32.783Z,1.40
2022-12-22T05:22:59.749Z,1.10
2022-12-22T05:25:31.343Z,1.80
2022-12-22T05:28:01.344Z,1.67
2022-12-22T05:30:28.415Z,1.60
2022-12-22T05:32:55.675Z,1.70
2022-12-22T05:35:22.485Z,1.60
2022-12-22T05:37:49.161Z,1.70
2022-12-22T05:40:15.861Z,1.80
2022-12-22T05:42:42.552Z,1.57
2022-12-22T05:45:16.898Z,1.70
2022-12-22T05:47:49.100Z,1.50
2022-12-22T05:50:19.318Z,1.70
2022-12-22T05:52:46.392Z,1.43
2022-12-22T05:55:14.011Z,2.23
2022-12-22T05:57:41.353Z,1.40
2022-12-22T06:00:11.529Z,2.70
2022-12-22T06:02:38.729Z,1.60
2022-12-22T06:05:06.094Z,1.60
2022-12-22T06:07:32.925Z,1.90
2022-12-22T06:09:59.626Z,1.60
2022-12-22T06:12:26.362Z,1.70
2022-12-22T06:14:53.200Z,1.50
2022-12-22T06:17:19.989Z,1.53
2022-12-22T06:19:46.729Z,1.60
2022-12-22T06:22:13.446Z,3.17
2022-12-22T06:24:40.284Z,1.80
2022-12-22T06:27:06.974Z,1.87
2022-12-22T06:29:33.698Z,1.90
2022-12-22T06:32:00.382Z,1.47
2022-12-22T06:34:27.128Z,1.80
2022-12-22T06:36:53.914Z,1.70
2022-12-22T06:39:20.700Z,2.20
2022-12-22T06:42:05.729Z,4.57
2022-12-22T06:44:32.493Z,5.03
2022-12-22T06:46:59.707Z,3.27
2022-12-22T06:49:26.498Z,1.87
2022-12-22T06:51:53.845Z,2.13
2022-12-22T06:54:25.867Z,1.90
2022-12-22T06:56:53.165Z,1.97
2022-12-22T06:59:19.993Z,1.80
2022-12-22T07:01:46.836Z,1.60
2022-12-22T07:04:19.689Z,2.20
2022-12-22T07:06:47.935Z,1.80
2022-12-22T07:09:14.643Z,1.80
2022-12-22T07:11:41.681Z,2.00
2022-12-22T07:14:08.522Z,1.97
2022-12-22T07:16:35.378Z,2.73
2022-12-22T07:19:02.165Z,1.80
2022-12-22T07:21:32.139Z,1.87
2022-12-22T07:23:59.229Z,2.17
2022-12-22T07:26:27.147Z,2.03
2022-12-22T07:28:53.887Z,3.17
2022-12-22T07:31:21.111Z,1.93
2022-12-22T07:33:48.062Z,2.40
2022-12-22T07:36:18.401Z,2.67
2022-12-22T07:38:47.256Z,2.40
2022-12-22T07:41:34.113Z,2.20
2022-12-22T07:44:01.710Z,3.30
2022-12-22T07:46:31.605Z,2.27
2022-12-22T07:49:17.494Z,2.27
2022-12-22T07:51:44.417Z,2.23
2022-12-22T07:54:13.675Z,2.50
2022-12-22T07:56:40.773Z,2.27
2022-12-22T07:59:08.170Z,1.90
2022-12-22T08:01:35.526Z,2.93
2022-12-22T08:04:02.384Z,3.03
2022-12-22T08:06:29.508Z,2.67
2022-12-22T08:08:56.175Z,2.37
2022-12-22T08:11:22.914Z,2.40
2022-12-22T08:13:50.014Z,2.20
2022-12-22T08:16:17.956Z,2.27
2022-12-22T08:18:44.743Z,2.90
2022-12-22T08:21:11.510Z,2.67
2022-12-22T08:23:38.399Z,2.40
2022-12-22T08:26:14.816Z,2.50
2022-12-22T08:28:52.751Z,2.00
2022-12-22T08:31:20.514Z,2.53
2022-12-22T08:33:48.398Z,2.43
2022-12-22T08:36:15.689Z,2.00
2022-12-22T08:38:43.108Z,3.13
2022-12-22T08:41:12.210Z,2.37
2022-12-22T08:43:39.026Z,2.83
2022-12-22T08:46:06.090Z,2.37
2022-12-22T08:48:32.984Z,2.47
2022-12-22T08:50:59.887Z,2.87
2022-12-22T08:54:03.047Z,2.67
2022-12-22T08:56:13.583Z,3.40
2022-12-22T08:58:40.789Z,2.53
2022-12-22T09:01:07.617Z,3.10
2022-12-22T09:03:34.422Z,3.60
2022-12-22T09:06:02.032Z,3.43
2022-12-22T09:08:28.731Z,2.50
2022-12-22T09:10:55.406Z,3.53
2022-12-22T09:13:22.324Z,2.57
2022-12-22T09:15:49.018Z,2.80
2022-12-22T09:18:16.049Z,2.07
2022-12-22T09:20:43.015Z,2.40
2022-12-22T09:23:10.179Z,3.17
2022-12-22T09:25:37.032Z,2.67
2022-12-22T09:28:07.391Z,2.10
2022-12-22T09:30:34.410Z,2.57
2022-12-22T09:33:01.225Z,2.00
2022-12-22T09:35:27.974Z,2.10
2022-12-22T09:37:54.772Z,1.83
2022-12-22T09:40:22.328Z,1.67
2022-12-22T09:42:49.040Z,2.20
2022-12-22T09:45:20.225Z,2.37
2022-12-22T09:47:53.973Z,2.30
2022-12-22T09:50:26.464Z,1.70
2022-12-22T09:53:00.184Z,2.00
2022-12-22T09:55:34.791Z,2.10
2022-12-22T09:58:01.986Z,2.00
2022-12-22T10:00:29.527Z,2.53
2022-12-22T10:03:29.348Z,2.07
2022-12-22T10:06:34.784Z,2.27
2022-12-22T10:09:46.346Z,2.00
2022-12-22T10:12:06.576Z,2.00
2022-12-22T10:14:42.970Z,2.07
2022-12-22T10:17:32.163Z,1.77
2022-12-22T10:20:22.680Z,2.07
2022-12-22T10:23:02.545Z,2.40
2022-12-22T10:26:25.901Z,2.53
2022-12-22T10:28:50.609Z,2.23
2022-12-22T10:31:22.632Z,2.63
2022-12-22T10:33:52.433Z,2.10
2022-12-22T10:36:32.515Z,3.47
2022-12-22T10:39:05.946Z,2.53
2022-12-22T10:41:44.967Z,2.17
2022-12-22T10:44:29.000Z,2.33
2022-12-22T10:46:57.827Z,1.90
2022-12-22T10:49:30.922Z,1.97
2022-12-22T10:52:12.494Z,2.43
2022-12-22T10:54:42.812Z,2.30
2022-12-22T10:57:16.644Z,2.10
2022-12-22T10:59:51.048Z,2.13
2022-12-22T11:02:24.155Z,3.53
2022-12-22T11:04:52.353Z,2.77
2022-12-22T11:07:20.080Z,2.57
2022-12-22T11:09:47.086Z,2.87
2022-12-22T11:12:41.601Z,2.73
2022-12-22T11:15:31.974Z,2.20
2022-12-22T11:18:25.724Z,2.43
2022-12-22T11:21:00.396Z,2.90
2022-12-22T11:23:45.804Z,2.70
2022-12-22T11:26:20.456Z,2.77
2022-12-22T11:29:12.253Z,2.80
2022-12-22T11:31:41.715Z,2.47
2022-12-22T11:34:27.116Z,2.70
2022-12-22T11:37:31.861Z,2.50
2022-12-22T11:40:24.168Z,4.23
2022-12-22T11:43:00.926Z,2.53
2022-12-22T11:45:59.854Z,2.63
2022-12-22T11:48:51.883Z,3.00
2022-12-22T11:51:49.853Z,2.43
2022-12-22T11:54:28.697Z,2.27
2022-12-22T11:57:01.352Z,2.13
2022-12-22T12:00:11.330Z,2.63
2022-12-22T12:02:40.730Z,2.23
2022-12-22T12:05:28.996Z,2.20
2022-12-22T12:08:03.133Z,2.90
2022-12-22T12:10:51.796Z,2.80
2022-12-22T12:13:39.850Z,2.47
2022-12-22T12:16:31.202Z,2.13
2022-12-22T12:19:19.131Z,2.57
2022-12-22T12:21:54.696Z,2.50
2022-12-22T12:24:42.691Z,2.53
2022-12-22T12:27:27.660Z,3.73
2022-12-22T12:33:13.191Z,2.40
2022-12-22T12:35:48.970Z,2.73
2022-12-22T12:39:05.662Z,2.53
2022-12-22T12:41:36.487Z,2.30
2022-12-22T12:44:04.253Z,2.20
2022-12-22T12:46:56.602Z,2.03
2022-12-22T12:49:36.056Z,2.10
2022-12-22T12:52:10.110Z,2.43
2022-12-22T12:54:49.561Z,2.63
2022-12-22T12:57:30.837Z,2.23
2022-12-22T12:59:59.727Z,2.40
2022-12-22T13:02:33.307Z,2.47
2022-12-22T13:05:12.246Z,2.03
2022-12-22T13:08:10.365Z,2.10
2022-12-22T13:10:55.673Z,3.57
2022-12-22T13:13:25.305Z,2.03
2022-12-22T13:16:01.649Z,2.07
2022-12-22T13:18:34.721Z,2.27
2022-12-22T13:21:51.529Z,2.07
2022-12-22T13:24:24.175Z,1.80
2022-12-22T13:26:55.234Z,2.03
2022-12-22T13:29:22.173Z,2.37
2022-12-22T13:32:05.228Z,2.60
2022-12-22T13:37:51.294Z,2.10
2022-12-22T13:40:24.468Z,2.00
2022-12-22T13:43:10.186Z,1.80
2022-12-22T13:45:42.278Z,2.30
2022-12-22T13:48:26.956Z,2.13
2022-12-22T13:50:55.997Z,2.40
2022-12-22T13:56:23.459Z,1.90
2022-12-22T13:58:59.816Z,2.50
2022-12-22T14:01:26.948Z,2.60
2022-12-22T14:04:02.530Z,2.60
2022-12-22T14:06:32.932Z,3.23
2022-12-22T14:09:24.299Z,2.53
2022-12-22T14:12:06.342Z,2.67
2022-12-22T14:14:38.635Z,2.73
2022-12-22T14:17:18.876Z,3.23
2022-12-22T14:19:56.817Z,2.60
2022-12-22T14:22:33.577Z,3.10
2022-12-22T14:25:09.321Z,2.40
2022-12-22T14:27:47.198Z,2.60
2022-12-22T14:30:26.347Z,2.90
2022-12-22T14:32:55.925Z,4.17
2022-12-22T14:35:23.157Z,3.90
2022-12-22T14:37:50.953Z,4.40
2022-12-22T14:40:34.765Z,3.30
2022-12-22T14:43:05.450Z,3.27
2022-12-22T14:45:32.874Z,2.53
2022-12-22T14:47:59.759Z,2.90
2022-12-22T14:50:29.137Z,2.67
2022-12-22T14:53:01.707Z,3.40
2022-12-22T14:55:29.925Z,2.93
2022-12-22T14:58:04.948Z,2.73
2022-12-22T15:00:36.360Z,3.47
2022-12-22T15:03:06.465Z,2.80
2022-12-22T15:05:37.523Z,3.47
2022-12-22T15:08:08.894Z,2.90
2022-12-22T15:10:42.963Z,2.50
2022-12-22T15:13:22.327Z,3.70
2022-12-22T15:15:51.433Z,3.30
2022-12-22T15:18:24.217Z,2.60
2022-12-22T15:20:51.152Z,2.77
2022-12-22T15:23:17.937Z,3.10
2022-12-22T15:25:45.345Z,2.67
2022-12-22T15:28:12.101Z,3.50
2022-12-22T15:30:39.135Z,2.50
2022-12-22T15:33:15.014Z,2.53
2022-12-22T15:35:42.625Z,2.57
2022-12-22T15:38:21.379Z,3.17
2022-12-22T15:40:49.185Z,3.23
2022-12-22T15:43:55.924Z,3.17
2022-12-22T15:46:05.948Z,3.53
2022-12-22T15:48:35.388Z,2.73
2022-12-22T15:51:04.444Z,3.10
2022-12-22T15:53:33.594Z,3.17
2022-12-22T15:56:01.161Z,3.10
2022-12-22T15:58:32.291Z,2.87
2022-12-22T16:00:59.021Z,3.27
2022-12-22T16:03:25.858Z,3.33
2022-12-22T16:05:53.265Z,3.50
2022-12-22T16:08:29.948Z,3.60
2022-12-22T16:10:56.863Z,3.23
2022-12-22T16:13:27.516Z,2.80
2022-12-22T16:15:56.478Z,3.27
2022-12-22T16:18:23.304Z,2.77
2022-12-22T16:20:50.550Z,3.33
2022-12-22T16:23:20.403Z,3.10
2022-12-22T16:25:47.635Z,3.20
2022-12-22T16:28:18.920Z,2.93
2022-12-22T16:30:45.919Z,2.90
2022-12-22T16:33:13.588Z,3.50
2022-12-22T16:35:40.854Z,3.47
2022-12-22T16:38:11.703Z,3.57
2022-12-22T16:40:45.295Z,3.57
2022-12-22T16:46:04.041Z,4.23
2022-12-22T16:48:34.496Z,2.93
2022-12-22T16:51:01.841Z,3.37
2022-12-22T16:53:29.185Z,3.10
2022-12-22T16:56:00.580Z,3.80
2022-12-22T16:58:27.335Z,3.43
2022-12-22T17:00:54.205Z,3.73
2022-12-22T17:03:26.069Z,3.50
2022-12-22T17:06:01.506Z,3.60
2022-12-22T17:08:39.276Z,3.70
2022-12-22T17:11:11.064Z,3.13
2022-12-22T17:13:39.119Z,3.13
2022-12-22T17:16:06.103Z,3.43
2022-12-22T17:18:35.132Z,3.33
2022-12-22T17:21:01.932Z,3.33
2022-12-22T17:23:40.588Z,3.40
2022-12-22T17:26:10.457Z,3.80
2022-12-22T17:28:38.409Z,3.20
2022-12-22T17:31:05.454Z,3.87
2022-12-22T17:33:32.696Z,3.80
2022-12-22T17:36:00.206Z,4.07
2022-12-22T17:38:28.835Z,4.20
2022-12-22T17:40:57.576Z,3.90
2022-12-22T17:43:24.405Z,4.27
2022-12-22T17:45:52.278Z,3.63
2022-12-22T17:48:19.579Z,4.10
2022-12-22T17:50:49.583Z,3.93
2022-12-22T17:53:20.076Z,4.07
2022-12-22T17:56:07.826Z,3.63
2022-12-22T17:58:34.511Z,3.87
2022-12-22T18:01:01.497Z,3.50
2022-12-22T18:03:28.463Z,4.03
2022-12-22T18:05:55.471Z,3.73
2022-12-22T18:08:22.391Z,6.57
2022-12-22T18:10:49.664Z,8.80
2022-12-22T18:13:22.648Z,7.87
2022-12-22T18:15:49.511Z,6.73
2022-12-22T18:18:18.189Z,5.20
2022-12-22T18:20:47.090Z,5.20
2022-12-22T18:23:34.187Z,5.57
2022-12-22T18:26:01.287Z,5.10
2022-12-22T18:28:28.113Z,5.47
2022-12-22T18:30:54.827Z,5.47
2022-12-22T18:33:21.523Z,5.37
2022-12-22T18:35:49.079Z,5.73
2022-12-22T18:38:30.736Z,5.67
2022-12-22T18:40:57.645Z,8.07
2022-12-22T18:43:24.588Z,6.87
2022-12-22T18:45:51.293Z,6.27
2022-12-22T18:48:18.179Z,6.93
2022-12-22T18:50:44.989Z,6.83
2022-12-22T18:53:27.971Z,7.33
2022-12-22T18:55:55.659Z,8.17
2022-12-22T18:58:22.763Z,9.37
2022-12-22T19:00:50.249Z,10.23
2022-12-22T19:03:30.884Z,10.30
2022-12-22T19:05:58.498Z,9.50
2022-12-22T19:08:27.254Z,10.30
2022-12-22T19:10:56.365Z,10.37
2022-12-22T19:13:42.329Z,10.83
2022-12-22T19:16:14.382Z,13.00
2022-12-22T19:18:41.290Z,14.00
2022-12-22T19:21:13.246Z,15.67
2022-12-22T19:23:40.462Z,15.50
2022-12-22T19:26:09.507Z,15.60
2022-12-22T19:28:39.301Z,15.77
2022-12-22T19:31:07.184Z,20.10
2022-12-22T19:33:42.297Z,20.63
2022-12-22T19:36:25.727Z,19.37
2022-12-22T19:39:05.771Z,18.23
2022-12-22T19:41:43.567Z,16.70
2022-12-22T19:44:21.970Z,17.27
2022-12-22T19:46:49.554Z,18.70
2022-12-22T19:49:18.683Z,15.87
2022-12-22T19:51:45.801Z,15.17
2022-12-22T19:54:13.220Z,16.00
2022-12-22T19:56:41.120Z,15.07
2022-12-22T19:59:38.593Z,12.83
2022-12-22T20:02:21.638Z,10.67
2022-12-22T20:04:49.960Z,12.20
2022-12-22T20:07:18.590Z,10.33
2022-12-22T20:09:45.573Z,11.17
2022-12-22T20:12:37.450Z,10.10
2022-12-22T20:15:29.473Z,9.40
2022-12-22T20:17:57.821Z,10.33
2022-12-22T20:20:32.961Z,8.57
2022-12-22T20:23:09.981Z,8.57
2022-12-22T20:25:40.705Z,9.13
2022-12-22T20:28:19.321Z,7.30
2022-12-22T20:30:46.862Z,9.00
2022-12-22T20:33:15.318Z,7.00
2022-12-22T20:35:43.353Z,9.50
2022-12-22T20:38:20.139Z,7.70
2022-12-22T20:40:48.878Z,7.73
2022-12-22T20:43:21.278Z,6.67
2022-12-22T20:45:50.899Z,7.33
2022-12-22T20:48:34.935Z,7.90
2022-12-22T20:51:03.116Z,7.97
2022-12-22T20:53:29.793Z,7.73
2022-12-22T20:55:57.048Z,9.73
2022-12-22T20:58:29.282Z,8.13
2022-12-22T21:00:58.729Z,8.60
2022-12-22T21:03:26.246Z,9.13
2022-12-22T21:05:53.890Z,9.50
2022-12-22T21:08:26.105Z,9.43
2022-12-22T21:10:54.847Z,8.00
2022-12-22T21:13:21.953Z,8.47
2022-12-22T21:15:52.343Z,8.80
2022-12-22T21:18:22.709Z,11.83
2022-12-22T21:20:50.645Z,10.57
2022-12-22T21:23:17.631Z,11.50
2022-12-22T21:25:48.669Z,10.33
2022-12-22T21:28:38.485Z,12.00
2022-12-22T21:31:05.628Z,11.20
2022-12-22T21:33:32.431Z,8.70
2022-12-22T21:36:02.072Z,8.03
2022-12-22T21:38:31.496Z,9.33
2022-12-22T21:40:58.756Z,8.47
2022-12-22T21:43:25.940Z,8.20
2022-12-22T21:45:52.804Z,11.30
2022-12-22T21:48:20.773Z,8.33
2022-12-22T21:50:50.309Z,8.07
2022-12-22T21:53:22.447Z,7.93
2022-12-22T21:55:49.596Z,8.80
2022-12-22T21:58:16.553Z,8.03
2022-12-22T22:00:47.529Z,9.50
2022-12-22T22:03:15.629Z,8.50
2022-12-22T22:05:43.023Z,9.07
2022-12-22T22:08:11.963Z,8.77
2022-12-22T22:10:41.341Z,7.37
2022-12-22T22:13:08.609Z,7.80
2022-12-22T22:15:35.861Z,6.67
2022-12-22T22:18:06.826Z,7.17
2022-12-22T22:20:34.551Z,6.53
2022-12-22T22:23:01.507Z,6.40
2022-12-22T22:25:28.199Z,5.87
2022-12-22T22:27:59.493Z,7.17
2022-12-22T22:30:27.074Z,6.40
2022-12-22T22:32:55.314Z,6.33
2022-12-22T22:35:24.289Z,6.93
2022-12-22T22:37:51.577Z,6.30
2022-12-22T22:40:21.377Z,6.60
2022-12-22T22:42:48.158Z,5.87
2022-12-22T22:45:19.782Z,6.77
2022-12-22T22:47:46.440Z,5.97
2022-12-22T22:50:13.368Z,6.83
2022-12-22T22:52:40.040Z,5.77
2022-12-22T22:55:06.996Z,5.80
2022-12-22T22:57:33.732Z,5.70
2022-12-22T23:00:00.551Z,5.50
2022-12-22T23:02:27.276Z,5.53
2022-12-22T23:04:54.079Z,5.93
2022-12-22T23:07:20.812Z,6.27
2022-12-22T23:09:47.535Z,6.50
2022-12-22T23:12:14.325Z,9.47
2022-12-22T23:14:41.014Z,11.20
2022-12-22T23:17:08.992Z,12.17
2022-12-22T23:19:35.707Z,10.53
2022-12-22T23:22:02.406Z,9.97
2022-12-22T23:24:29.130Z,9.17
2022-12-22T23:26:55.876Z,8.87
2022-12-22T23:29:22.687Z,8.47
2022-12-22T23:31:49.534Z,9.63
2022-12-22T23:34:16.363Z,8.23
2022-12-22T23:36:43.074Z,7.80
2022-12-22T23:39:09.886Z,7.30
2022-12-22T23:41:36.766Z,7.03
2022-12-22T23:44:03.506Z,6.37
2022-12-22T23:46:30.296Z,7.07
2022-12-22T23:48:58.115Z,6.60
2022-12-22T23:51:27.302Z,6.70
2022-12-22T23:53:56.579Z,5.80
2022-12-22T23:56:23.503Z,4.77
2022-12-22T23:58:54.652Z,4.73
